Costa Fascinosa — ICPO — position and weather

sailwx.info

Track history (hours):
 
Tides and Currents Weather Stations Pressure Air Temp Water Temp Dewpoint Dewpoint Depression Visibility Wind Speed Wind Dir Waves Ship Positions

Costa Fascinosa

Last reported at 2017-Nov-23 06:20 UTC. Time now 2017-Nov-23 07:43 UTC.
Position N 32°45' W 009°41'.

Length 291 m; draft 8.3 m.

Type: Passenger vessel. MMSI: 247313500.

Date/timePositionNaut miles runAvg speedWind from/ knotsBaromVisibWave heightAir tempDewpointWater temp
2017-Nov-23 06:20N 32°45' W 009°41'1717.4
2017-Nov-23 05:20N 32°55' W 009°24'1217.6
2017-Nov-23 04:41N 33°01' W 009°12'417.8
2017-Nov-23 04:29N 33°04' W 009°09'3817.7
2017-Nov-23 02:20N 33°28' W 008°33'4917.6
2017-Nov-22 23:34N 33°43' W 007°38'117.1
2017-Nov-22 23:29N 33°43' W 007°36'612.2
2017-Nov-22 23:00N 33°37' W 007°35'  
2017-Nov-19 22:07N 43°10' E 006°60'219.8
2017-Nov-19 22:00N 43°12' E 007°03'1019.6
2017-Nov-19 21:29N 43°18' E 007°13'1019.6
2017-Nov-19 21:00N 43°24' E 007°24'1019.2
2017-Nov-19 20:30N 43°30' E 007°34'1219.5
2017-Nov-19 19:55N 43°37' E 007°46'1019.6
2017-Nov-19 19:25N 43°44' E 007°57'1919.3
2017-Nov-19 18:24N 43°57' E 008°16'819.5
2017-Nov-19 18:00N 44°03' E 008°23'1019.3
2017-Nov-19 17:30N 44°11' E 008°30'815.1
2017-Nov-19 17:01N 44°19' E 008°31'1 2.1
2017-Nov-19 16:30N 44°19' E 008°29'0 0.0
2017-Nov-19 15:57N 44°19' E 008°29'0 0.0
2017-Nov-19 15:27N 44°19' E 008°29'0 0.0
2017-Nov-19 14:57N 44°19' E 008°29'0 0.0
2017-Nov-19 14:30N 44°19' E 008°29'0 0.0
2017-Nov-19 14:00N 44°19' E 008°29'0 0.0
2017-Nov-19 13:30N 44°19' E 008°29'0 0.0
2017-Nov-19 13:00N 44°19' E 008°29'0 0.0
2017-Nov-19 12:30N 44°19' E 008°29'0 0.0
2017-Nov-19 12:00N 44°19' E 008°29'0 0.0
2017-Nov-19 11:30N 44°19' E 008°29'0 0.0
2017-Nov-19 11:00N 44°19' E 008°29'0 0.0
2017-Nov-19 10:30N 44°19' E 008°29'0 0.0
2017-Nov-19 10:00N 44°19' E 008°29'0 0.0
2017-Nov-19 09:30N 44°19' E 008°29'0 0.0
2017-Nov-19 09:00N 44°19' E 008°29'0 0.0
2017-Nov-19 08:30N 44°19' E 008°29'0 0.0
2017-Nov-19 08:00N 44°19' E 008°29'0 0.0
2017-Nov-19 07:30N 44°19' E 008°29'0 0.9
2017-Nov-19 07:00N 44°19' E 008°30'4 8.4
2017-Nov-19 06:30N 44°15' E 008°32'816.8
2017-Nov-19 06:00N 44°07' E 008°27'917.0
2017-Nov-19 05:30N 43°60' E 008°21'2817.1
2017-Nov-19 03:51N 43°39' E 007°54'917.2
2017-Nov-19 03:20N 43°34' E 007°44'617.4
2017-Nov-19 02:59N 43°31' E 007°37'817.3
2017-Nov-19 02:30N 43°26' E 007°28'917.1
2017-Nov-19 02:00N 43°21' E 007°18'612.9
2017-Nov-19 01:30N 43°17' E 007°11'612.4
2017-Nov-19 01:00N 43°13' E 007°04'1112.3
2017-Nov-19 00:05N 43°07' E 006°52'112.4
2017-Nov-18 23:58N 43°06' E 006°50'7111.1
2017-Nov-18 17:36N 43°08' E 005°13'212.4
2017-Nov-18 17:26N 43°10' E 005°11'511.4
2017-Nov-18 17:00N 43°15' E 005°11'611.9
2017-Nov-18 16:30N 43°19' E 005°15'4 0.6
2017-Nov-18 10:06N 43°21' E 005°20'0 0.0
2017-Nov-18 10:00N 43°21' E 005°20'0 0.0
2017-Nov-18 09:21N 43°21' E 005°20'0 0.0
2017-Nov-18 08:57N 43°21' E 005°20'0 0.0
2017-Nov-18 08:21N 43°21' E 005°20'0 0.0
2017-Nov-18 07:51N 43°21' E 005°20'0 0.0
2017-Nov-18 07:30N 43°21' E 005°20'2 3.1
2017-Nov-18 07:00N 43°21' E 005°18'611.5
2017-Nov-18 06:30N 43°17' E 005°12'179 7.9
2017-Nov-17 07:42N 41°19' E 002°10'2 8.5
2017-Nov-17 07:30N 41°17' E 002°11'5 9.3
2017-Nov-17 06:59N 41°14' E 002°16'5613.5
2017-Nov-17 02:51N 40°31' E 003°03'55316.7
2017-Nov-15 17:47N 36°26' E 013°37'517.3
2017-Nov-15 17:30N 36°24' E 013°42'917.2
2017-Nov-15 17:00N 36°20' E 013°52'917.4
2017-Nov-15 16:30N 36°16' E 014°01'917.6
2017-Nov-15 16:00N 36°12' E 014°11'917.5
2017-Nov-15 15:31N 36°08' E 014°20'917.5
2017-Nov-15 15:00N 36°02' E 014°29'815.1
2017-Nov-15 14:30N 35°55' E 014°32'2 3.7
2017-Nov-15 13:59N 35°53' E 014°31'0 0.0
2017-Nov-15 13:26N 35°53' E 014°31'0 0.0
2017-Nov-15 12:59N 35°53' E 014°31'0 0.0
2017-Nov-15 12:29N 35°53' E 014°31'0 0.0
2017-Nov-15 11:53N 35°53' E 014°31'0 0.0
2017-Nov-15 11:29N 35°53' E 014°31'0 0.0
2017-Nov-15 10:59N 35°53' E 014°31'0 0.0
2017-Nov-15 10:29N 35°53' E 014°31'0 0.0
2017-Nov-15 09:59N 35°53' E 014°31'0 0.0
2017-Nov-15 09:29N 35°53' E 014°31'0 0.0
2017-Nov-15 08:59N 35°53' E 014°31'0 0.0
2017-Nov-15 08:29N 35°53' E 014°31'0 0.0
2017-Nov-15 07:56N 35°53' E 014°31'0 0.0
2017-Nov-15 07:31N 35°53' E 014°31'2 3.0
2017-Nov-15 07:00N 35°54' E 014°32'510.5
2017-Nov-15 06:30N 35°59' E 014°34'816.0
2017-Nov-15 06:00N 36°06' E 014°27'917.7
2017-Nov-15 05:30N 36°11' E 014°19'917.7
2017-Nov-15 05:00N 36°16' E 014°10'917.8
2017-Nov-15 04:30N 36°21' E 014°01'918.4
2017-Nov-15 04:00N 36°26' E 013°51'11610.6
2017-Nov-14 17:02N 38°17' E 013°07'618.1
2017-Nov-14 16:43N 38°17' E 013°14'418.1
2017-Nov-14 16:29N 38°17' E 013°19'715.5
2017-Nov-14 16:00N 38°13' E 013°27'612.5
2017-Nov-14 15:31N 38°07' E 013°23'1 2.3
2017-Nov-14 14:58N 38°08' E 013°22'0 0.0
2017-Nov-14 14:28N 38°08' E 013°22'0 0.0
2017-Nov-14 13:58N 38°08' E 013°22'0 0.0
2017-Nov-14 13:19N 38°08' E 013°22'0 0.0
2017-Nov-14 12:49N 38°08' E 013°22'0 0.0
2017-Nov-14 12:19N 38°08' E 013°22'0 0.0
2017-Nov-14 11:34N 38°08' E 013°22'0 0.0
2017-Nov-14 11:22N 38°08' E 013°22'0 0.0
2017-Nov-14 10:52N 38°08' E 013°22'0 0.0
2017-Nov-14 10:22N 38°08' E 013°22'0 0.0
2017-Nov-14 09:52N 38°08' E 013°22'0 0.0
2017-Nov-14 09:22N 38°08' E 013°22'0 0.0
2017-Nov-14 08:52N 38°08' E 013°22'0 0.0
2017-Nov-14 08:22N 38°08' E 013°22'0 0.0
2017-Nov-14 07:55N 38°08' E 013°22'0 0.2
2017-Nov-14 07:30N 38°08' E 013°22'2 4.9
2017-Nov-14 07:00N 38°09' E 013°25'815.2
2017-Nov-14 06:30N 38°16' E 013°27'917.6
2017-Nov-14 06:00N 38°25' E 013°30'917.6
2017-Nov-14 05:30N 38°33' E 013°32'917.2
2017-Nov-14 05:00N 38°42' E 013°35'917.4
2017-Nov-14 04:30N 38°50' E 013°37'  
Track history (hours):
 
Tides and Currents Weather Stations Pressure Air Temp Water Temp Dewpoint Dewpoint Depression Visibility Wind Speed Wind Dir Waves Ship Positions

Costa Fascinosa

Last reported at 2017-Nov-23 06:20 UTC. Time now 2017-Nov-23 07:43 UTC.
Position N 32°45' W 009°41'.

Length 291 m; draft 8.3 m.

Type: Passenger vessel. MMSI: 247313500.

Date/timePositionNaut miles runAvg speedWind from/ knotsBaromVisibWave heightAir tempDewpointWater temp
2017-Nov-23 06:20N 32°45' W 009°41'1717.4
2017-Nov-23 05:20N 32°55' W 009°24'1217.6
2017-Nov-23 04:41N 33°01' W 009°12'417.8
2017-Nov-23 04:29N 33°04' W 009°09'3817.7
2017-Nov-23 02:20N 33°28' W 008°33'4917.6
2017-Nov-22 23:34N 33°43' W 007°38'117.1
2017-Nov-22 23:29N 33°43' W 007°36'612.2
2017-Nov-22 23:00N 33°37' W 007°35'  
2017-Nov-19 22:07N 43°10' E 006°60'219.8
2017-Nov-19 22:00N 43°12' E 007°03'1019.6
2017-Nov-19 21:29N 43°18' E 007°13'1019.6
2017-Nov-19 21:00N 43°24' E 007°24'1019.2
2017-Nov-19 20:30N 43°30' E 007°34'1219.5
2017-Nov-19 19:55N 43°37' E 007°46'1019.6
2017-Nov-19 19:25N 43°44' E 007°57'1919.3
2017-Nov-19 18:24N 43°57' E 008°16'819.5
2017-Nov-19 18:00N 44°03' E 008°23'1019.3
2017-Nov-19 17:30N 44°11' E 008°30'815.1
2017-Nov-19 17:01N 44°19' E 008°31'1 2.1
2017-Nov-19 16:30N 44°19' E 008°29'0 0.0
2017-Nov-19 15:57N 44°19' E 008°29'0 0.0
2017-Nov-19 15:27N 44°19' E 008°29'0 0.0
2017-Nov-19 14:57N 44°19' E 008°29'0 0.0
2017-Nov-19 14:30N 44°19' E 008°29'0 0.0
2017-Nov-19 14:00N 44°19' E 008°29'0 0.0
2017-Nov-19 13:30N 44°19' E 008°29'0 0.0
2017-Nov-19 13:00N 44°19' E 008°29'0 0.0
2017-Nov-19 12:30N 44°19' E 008°29'0 0.0
2017-Nov-19 12:00N 44°19' E 008°29'0 0.0
2017-Nov-19 11:30N 44°19' E 008°29'0 0.0
2017-Nov-19 11:00N 44°19' E 008°29'0 0.0
2017-Nov-19 10:30N 44°19' E 008°29'0 0.0
2017-Nov-19 10:00N 44°19' E 008°29'0 0.0
2017-Nov-19 09:30N 44°19' E 008°29'0 0.0
2017-Nov-19 09:00N 44°19' E 008°29'0 0.0
2017-Nov-19 08:30N 44°19' E 008°29'0 0.0
2017-Nov-19 08:00N 44°19' E 008°29'0 0.0
2017-Nov-19 07:30N 44°19' E 008°29'0 0.9
2017-Nov-19 07:00N 44°19' E 008°30'4 8.4
2017-Nov-19 06:30N 44°15' E 008°32'816.8
2017-Nov-19 06:00N 44°07' E 008°27'917.0
2017-Nov-19 05:30N 43°60' E 008°21'2817.1
2017-Nov-19 03:51N 43°39' E 007°54'917.2
2017-Nov-19 03:20N 43°34' E 007°44'617.4
2017-Nov-19 02:59N 43°31' E 007°37'817.3
2017-Nov-19 02:30N 43°26' E 007°28'917.1
2017-Nov-19 02:00N 43°21' E 007°18'612.9
2017-Nov-19 01:30N 43°17' E 007°11'612.4
2017-Nov-19 01:00N 43°13' E 007°04'1112.3
2017-Nov-19 00:05N 43°07' E 006°52'112.4
2017-Nov-18 23:58N 43°06' E 006°50'7111.1
2017-Nov-18 17:36N 43°08' E 005°13'212.4
2017-Nov-18 17:26N 43°10' E 005°11'511.4
2017-Nov-18 17:00N 43°15' E 005°11'611.9
2017-Nov-18 16:30N 43°19' E 005°15'4 0.6
2017-Nov-18 10:06N 43°21' E 005°20'0 0.0
2017-Nov-18 10:00N 43°21' E 005°20'0 0.0
2017-Nov-18 09:21N 43°21' E 005°20'0 0.0
2017-Nov-18 08:57N 43°21' E 005°20'0 0.0
2017-Nov-18 08:21N 43°21' E 005°20'0 0.0
2017-Nov-18 07:51N 43°21' E 005°20'0 0.0
2017-Nov-18 07:30N 43°21' E 005°20'2 3.1
2017-Nov-18 07:00N 43°21' E 005°18'611.5
2017-Nov-18 06:30N 43°17' E 005°12'179 7.9
2017-Nov-17 07:42N 41°19' E 002°10'2 8.5
2017-Nov-17 07:30N 41°17' E 002°11'5 9.3
2017-Nov-17 06:59N 41°14' E 002°16'5613.5
2017-Nov-17 02:51N 40°31' E 003°03'55316.7
2017-Nov-15 17:47N 36°26' E 013°37'517.3
2017-Nov-15 17:30N 36°24' E 013°42'917.2
2017-Nov-15 17:00N 36°20' E 013°52'917.4
2017-Nov-15 16:30N 36°16' E 014°01'917.6
2017-Nov-15 16:00N 36°12' E 014°11'917.5
2017-Nov-15 15:31N 36°08' E 014°20'917.5
2017-Nov-15 15:00N 36°02' E 014°29'815.1
2017-Nov-15 14:30N 35°55' E 014°32'2 3.7
2017-Nov-15 13:59N 35°53' E 014°31'0 0.0
2017-Nov-15 13:26N 35°53' E 014°31'0 0.0
2017-Nov-15 12:59N 35°53' E 014°31'0 0.0
2017-Nov-15 12:29N 35°53' E 014°31'0 0.0
2017-Nov-15 11:53N 35°53' E 014°31'0 0.0
2017-Nov-15 11:29N 35°53' E 014°31'0 0.0
2017-Nov-15 10:59N 35°53' E 014°31'0 0.0
2017-Nov-15 10:29N 35°53' E 014°31'0 0.0
2017-Nov-15 09:59N 35°53' E 014°31'0 0.0
2017-Nov-15 09:29N 35°53' E 014°31'0 0.0
2017-Nov-15 08:59N 35°53' E 014°31'0 0.0
2017-Nov-15 08:29N 35°53' E 014°31'0 0.0
2017-Nov-15 07:56N 35°53' E 014°31'0 0.0
2017-Nov-15 07:31N 35°53' E 014°31'2 3.0
2017-Nov-15 07:00N 35°54' E 014°32'510.5
2017-Nov-15 06:30N 35°59' E 014°34'816.0
2017-Nov-15 06:00N 36°06' E 014°27'917.7
2017-Nov-15 05:30N 36°11' E 014°19'917.7
2017-Nov-15 05:00N 36°16' E 014°10'917.8
2017-Nov-15 04:30N 36°21' E 014°01'918.4
2017-Nov-15 04:00N 36°26' E 013°51'11610.6
2017-Nov-14 17:02N 38°17' E 013°07'618.1
2017-Nov-14 16:43N 38°17' E 013°14'418.1
2017-Nov-14 16:29N 38°17' E 013°19'715.5
2017-Nov-14 16:00N 38°13' E 013°27'612.5
2017-Nov-14 15:31N 38°07' E 013°23'1 2.3
2017-Nov-14 14:58N 38°08' E 013°22'0 0.0
2017-Nov-14 14:28N 38°08' E 013°22'0 0.0
2017-Nov-14 13:58N 38°08' E 013°22'0 0.0
2017-Nov-14 13:19N 38°08' E 013°22'0 0.0
2017-Nov-14 12:49N 38°08' E 013°22'0 0.0
2017-Nov-14 12:19N 38°08' E 013°22'0 0.0
2017-Nov-14 11:34N 38°08' E 013°22'0 0.0
2017-Nov-14 11:22N 38°08' E 013°22'0 0.0
2017-Nov-14 10:52N 38°08' E 013°22'0 0.0
2017-Nov-14 10:22N 38°08' E 013°22'0 0.0
2017-Nov-14 09:52N 38°08' E 013°22'0 0.0
2017-Nov-14 09:22N 38°08' E 013°22'0 0.0
2017-Nov-14 08:52N 38°08' E 013°22'0 0.0
2017-Nov-14 08:22N 38°08' E 013°22'0 0.0
2017-Nov-14 07:55N 38°08' E 013°22'0 0.2
2017-Nov-14 07:30N 38°08' E 013°22'2 4.9
2017-Nov-14 07:00N 38°09' E 013°25'815.2
2017-Nov-14 06:30N 38°16' E 013°27'917.6
2017-Nov-14 06:00N 38°25' E 013°30'917.6
2017-Nov-14 05:30N 38°33' E 013°32'917.2
2017-Nov-14 05:00N 38°42' E 013°35'917.4
2017-Nov-14 04:30N 38°50' E 013°37'  

Dump ship's entire track history